createdAt,value
2019-02-17T00:00:37.636Z,100709.09
2019-02-17T00:03:06.881Z,100707.78
2019-02-17T00:05:35.936Z,100706.45
2019-02-17T00:08:05.010Z,100696.80
2019-02-17T00:10:34.096Z,100702.84
2019-02-17T00:13:03.211Z,100704.55
2019-02-17T00:15:32.294Z,100706.65
2019-02-17T00:18:01.394Z,100697.06
2019-02-17T00:20:30.506Z,100702.22
2019-02-17T00:22:59.584Z,100699.53
2019-02-17T00:25:28.788Z,100697.78
2019-02-17T00:27:57.951Z,100693.31
2019-02-17T00:30:27.068Z,100699.72
2019-02-17T00:32:56.161Z,100700.84
2019-02-17T00:35:25.274Z,100689.75
2019-02-17T00:37:54.391Z,100686.62
2019-02-17T00:40:23.495Z,100677.86
2019-02-17T00:42:52.615Z,100684.33
2019-02-17T00:45:21.737Z,100676.89
2019-02-17T00:47:50.849Z,100678.23
2019-02-17T00:50:20.084Z,100674.80
2019-02-17T00:52:49.186Z,100674.36
2019-02-17T00:55:18.419Z,100672.61
2019-02-17T00:57:47.501Z,100672.64
2019-02-17T01:00:16.700Z,100670.04
2019-02-17T01:02:45.792Z,100675.70
2019-02-17T01:05:14.929Z,100669.59
2019-02-17T01:07:44.001Z,100671.75
2019-02-17T01:10:13.157Z,100668.66
2019-02-17T01:12:42.201Z,100672.61
2019-02-17T01:15:11.349Z,100672.20
2019-02-17T01:17:40.619Z,100672.61
2019-02-17T01:20:10.020Z,100663.92
2019-02-17T01:22:39.102Z,100665.23
2019-02-17T01:25:08.443Z,100662.22
2019-02-17T01:27:37.642Z,100671.34
2019-02-17T01:30:07.283Z,100665.69
2019-02-17T01:32:36.358Z,100670.08
2019-02-17T01:35:05.618Z,100665.72
2019-02-17T01:37:34.846Z,100665.27
2019-02-17T01:40:04.391Z,100664.37
2019-02-17T01:42:33.582Z,100662.25
2019-02-17T01:45:02.759Z,100668.73
2019-02-17T01:47:31.875Z,100667.84
2019-02-17T01:50:00.942Z,100664.30
2019-02-17T01:52:30.007Z,100669.06
2019-02-17T01:54:59.092Z,100657.70
2019-02-17T01:57:28.207Z,100658.14
2019-02-17T01:59:57.331Z,100659.86
2019-02-17T02:02:26.428Z,100660.70
2019-02-17T02:04:55.520Z,100656.77
2019-02-17T02:07:24.702Z,100655.87
2019-02-17T02:09:53.783Z,100654.56
2019-02-17T02:12:22.971Z,100646.74
2019-02-17T02:14:52.048Z,100644.95
2019-02-17T02:17:21.115Z,100645.36
2019-02-17T02:19:50.208Z,100639.25
2019-02-17T02:22:19.346Z,100643.16
2019-02-17T02:24:48.467Z,100638.80
2019-02-17T02:27:17.653Z,100636.60
2019-02-17T02:29:46.839Z,100636.16
2019-02-17T02:32:15.919Z,100633.10
2019-02-17T02:34:45.051Z,100634.40
2019-02-17T02:37:14.190Z,100635.66
2019-02-17T02:39:43.264Z,100636.11
2019-02-17T02:42:12.279Z,100630.41
2019-02-17T02:44:41.377Z,100628.66
2019-02-17T02:47:10.444Z,100626.01
2019-02-17T02:49:39.541Z,100626.01
2019-02-17T02:52:08.924Z,100619.91
2019-02-17T02:54:38.114Z,100613.76
2019-02-17T02:57:07.253Z,100616.36
2019-02-17T02:59:36.349Z,100610.70
2019-02-17T03:02:05.563Z,100609.84
2019-02-17T03:04:34.618Z,100606.30
2019-02-17T03:07:06.376Z,100599.34
2019-02-17T09:57:01.594Z,100415.39
2019-02-17T09:59:30.754Z,100419.10
2019-02-17T10:01:59.995Z,100418.98
2019-02-17T10:04:29.113Z,100418.98
2019-02-17T10:06:58.282Z,100423.19
2019-02-17T10:09:27.374Z,100423.01
2019-02-17T10:11:56.403Z,100429.12
2019-02-17T10:14:25.456Z,100413.02
2019-02-17T10:16:54.520Z,100422.16
2019-02-17T10:19:23.663Z,100416.22
2019-02-17T10:21:52.721Z,100418.69
2019-02-17T10:24:21.911Z,100425.36
2019-02-17T10:26:50.995Z,100419.16
2019-02-17T10:29:20.241Z,100415.64
2019-02-17T10:31:49.403Z,100428.05
2019-02-17T10:34:18.562Z,100425.93
2019-02-17T10:36:47.987Z,100415.95
2019-02-17T10:39:17.068Z,100410.58
2019-02-17T10:41:46.216Z,100416.47
2019-02-17T10:44:15.313Z,100408.21
2019-02-17T10:46:44.511Z,100411.83
2019-02-17T10:49:13.774Z,100404.13
2019-02-17T10:51:42.863Z,100404.61
2019-02-17T10:54:11.948Z,100412.30
2019-02-17T10:56:41.241Z,100411.64
2019-02-17T10:59:10.355Z,100403.16
2019-02-17T11:01:40.817Z,100403.88
2019-02-17T11:04:11.615Z,100405.72
2019-02-17T11:06:40.771Z,100398.22
2019-02-17T11:09:18.978Z,100392.38
2019-02-17T11:11:48.187Z,100398.54
2019-02-17T11:14:17.415Z,100399.59
2019-02-17T11:16:46.998Z,100386.59
2019-02-17T11:19:16.459Z,100374.16
2019-02-17T11:21:45.672Z,100382.80
2019-02-17T11:24:14.858Z,100375.00
2019-02-17T11:26:44.029Z,100373.95
2019-02-17T11:29:13.130Z,100370.06
2019-02-17T11:31:42.238Z,100368.66
2019-02-17T11:34:11.338Z,100363.64
2019-02-17T11:36:40.533Z,100368.03
2019-02-17T11:39:17.371Z,100365.30
2019-02-17T11:41:46.492Z,100360.29
2019-02-17T11:44:15.675Z,100346.66
2019-02-17T11:46:44.824Z,100355.45
2019-02-17T11:49:13.909Z,100346.58
2019-02-17T11:51:43.046Z,100344.84
2019-02-17T11:54:12.101Z,100341.63
2019-02-17T11:56:41.234Z,100346.08
2019-02-17T11:59:10.320Z,100344.28
2019-02-17T12:01:39.517Z,100331.98
2019-02-17T12:04:08.680Z,100331.26
2019-02-17T12:06:37.775Z,100341.44
2019-02-17T12:09:08.145Z,100315.28
2019-02-17T12:11:37.337Z,100323.52
2019-02-17T12:14:06.504Z,100317.30
2019-02-17T12:16:37.268Z,100308.45
2019-02-17T12:19:06.534Z,100312.41
2019-02-17T12:21:41.105Z,100308.48
2019-02-17T12:24:18.701Z,100306.77
2019-02-17T12:27:09.913Z,100302.81
2019-02-17T12:29:51.038Z,100300.98
2019-02-17T12:32:22.844Z,100293.41
2019-02-17T12:34:51.927Z,100298.47
2019-02-17T12:37:21.046Z,100291.28
2019-02-17T12:39:50.231Z,100295.30
2019-02-17T12:42:19.737Z,100292.72
2019-02-17T12:44:49.006Z,100284.33
2019-02-17T12:47:18.191Z,100289.94
2019-02-17T12:49:47.371Z,100283.88
2019-02-17T12:52:16.602Z,100280.30
2019-02-17T12:54:46.025Z,100279.02
2019-02-17T12:57:15.111Z,100273.30
2019-02-17T12:59:44.196Z,100288.55
2019-02-17T13:02:13.342Z,100275.53
2019-02-17T13:04:42.482Z,100273.25
2019-02-17T13:07:11.688Z,100263.33
2019-02-17T13:09:40.755Z,100263.43
2019-02-17T13:12:09.846Z,100267.45
2019-02-17T13:14:38.863Z,100263.45
2019-02-17T13:17:08.026Z,100268.35
2019-02-17T13:19:37.131Z,100260.30
2019-02-17T13:22:06.211Z,100251.48
2019-02-17T13:24:35.219Z,100257.90
2019-02-17T13:27:04.314Z,100255.97
2019-02-17T13:29:33.433Z,100245.41
2019-02-17T13:32:02.573Z,100245.74
2019-02-17T13:34:31.605Z,100241.67
2019-02-17T13:37:00.731Z,100235.66
2019-02-17T13:39:29.768Z,100233.60
2019-02-17T13:41:58.861Z,100238.59
2019-02-17T13:44:27.935Z,100232.91
2019-02-17T13:46:57.026Z,100230.28
2019-02-17T13:49:26.089Z,100242.62
2019-02-17T13:51:55.375Z,100225.61
2019-02-17T13:54:24.438Z,100223.80
2019-02-17T13:56:53.551Z,100224.32
2019-02-17T13:59:22.643Z,100221.98
2019-02-17T14:01:52.249Z,100220.95
2019-02-17T14:04:21.309Z,100208.72
2019-02-17T14:06:51.759Z,100203.13
2019-02-17T14:09:20.958Z,100202.02
2019-02-17T14:11:50.004Z,100195.91
2019-02-17T14:14:19.060Z,100200.23
2019-02-17T14:16:48.173Z,100196.45
2019-02-17T14:19:17.258Z,100200.00
2019-02-17T14:21:46.334Z,100201.95
2019-02-17T14:24:15.415Z,100205.45
2019-02-17T14:26:44.537Z,100196.72
2019-02-17T14:29:13.623Z,100188.34
2019-02-17T14:31:42.698Z,100189.50
2019-02-17T14:34:11.807Z,100187.99
2019-02-17T14:36:40.903Z,100190.55
2019-02-17T14:39:09.908Z,100199.30
2019-02-17T14:41:38.963Z,100189.07
2019-02-17T14:44:08.021Z,100183.47
2019-02-17T14:46:37.067Z,100187.58
2019-02-17T14:49:06.221Z,100180.71
2019-02-17T14:51:35.242Z,100181.61
2019-02-17T14:54:06.566Z,100189.95
2019-02-17T14:56:35.138Z,100181.55
2019-02-17T14:59:04.214Z,100175.98
2019-02-17T15:01:33.272Z,100172.64
2019-02-17T15:04:08.818Z,100169.67
2019-02-17T15:06:33.120Z,100170.83
2019-02-17T15:09:02.184Z,100170.09
2019-02-17T15:11:31.195Z,100166.84
2019-02-17T15:14:00.232Z,100172.50
2019-02-17T15:16:29.289Z,100162.25
2019-02-17T15:18:58.357Z,100166.94
2019-02-17T15:21:27.370Z,100160.09
2019-02-17T15:23:56.436Z,100166.66
2019-02-17T15:26:25.483Z,100160.27
2019-02-17T15:28:54.551Z,100166.70
2019-02-17T15:31:23.621Z,100159.98
2019-02-17T15:33:52.684Z,100156.05
2019-02-17T15:36:21.711Z,100161.02
2019-02-17T15:38:50.819Z,100166.41
2019-02-17T15:41:19.880Z,100162.52
2019-02-17T15:43:48.973Z,100157.34
2019-02-17T15:46:17.963Z,100172.48
2019-02-17T15:48:47.007Z,100161.13
2019-02-17T15:51:16.124Z,100159.59
2019-02-17T15:53:45.249Z,100153.08
2019-02-17T15:56:14.330Z,100157.19
2019-02-17T15:58:44.975Z,100154.77
2019-02-17T16:01:14.172Z,100143.05
2019-02-17T16:03:44.946Z,100150.34
2019-02-17T16:06:14.462Z,100144.16
2019-02-17T16:08:43.496Z,100149.37
2019-02-17T16:11:12.573Z,100146.53
2019-02-17T16:13:41.735Z,100149.76
2019-02-17T16:16:10.715Z,100154.56
2019-02-17T16:18:39.769Z,100153.52
2019-02-17T16:21:08.851Z,100163.91
2019-02-17T16:23:37.873Z,100158.13
2019-02-17T16:26:06.881Z,100160.23
2019-02-17T16:28:35.969Z,100163.68
2019-02-17T16:31:05.102Z,100159.95
2019-02-17T16:33:34.155Z,100171.78
2019-02-17T16:36:03.291Z,100166.58
2019-02-17T16:38:32.524Z,100161.95
2019-02-17T16:41:01.610Z,100167.67
2019-02-17T16:43:30.687Z,100159.53
2019-02-17T16:45:59.774Z,100163.80
2019-02-17T16:48:28.865Z,100160.92
2019-02-17T16:50:57.909Z,100158.94
2019-02-17T16:53:26.952Z,100156.72
2019-02-17T16:55:56.002Z,100161.81
2019-02-17T16:58:25.083Z,100054.61
2019-02-17T17:00:54.119Z,100168.94
2019-02-17T17:03:23.289Z,100159.50
2019-02-17T17:05:52.319Z,100165.47
2019-02-17T17:08:21.387Z,100168.24
2019-02-17T17:10:50.514Z,100171.69
2019-02-17T17:13:19.570Z,100174.05
2019-02-17T17:15:48.647Z,100175.59
2019-02-17T17:18:17.786Z,100175.36
2019-02-17T17:20:46.999Z,100177.25
2019-02-17T17:23:16.100Z,100170.80
2019-02-17T17:25:45.196Z,100179.87
2019-02-17T17:28:14.398Z,100175.52
2019-02-17T17:30:43.385Z,100179.63
2019-02-17T17:33:12.610Z,100175.38
2019-02-17T17:35:41.633Z,100192.96
2019-02-17T17:38:10.708Z,100201.61
2019-02-17T17:40:39.747Z,100199.49
2019-02-17T17:43:08.804Z,100199.66
2019-02-17T17:45:37.865Z,100212.38
2019-02-17T17:48:06.918Z,100204.20
2019-02-17T17:50:35.969Z,100200.26
2019-02-17T17:53:05.042Z,100199.46
2019-02-17T17:55:34.184Z,100205.84
2019-02-17T17:58:03.192Z,100217.27
2019-02-17T18:00:33.649Z,100210.83
2019-02-17T18:03:02.693Z,100205.16
2019-02-17T18:05:31.800Z,100201.30
2019-02-17T18:08:00.872Z,100207.08
2019-02-17T18:10:30.004Z,100208.89
2019-02-17T18:12:59.005Z,100210.34
2019-02-17T18:15:28.036Z,100212.64
2019-02-17T18:17:57.096Z,100210.84
2019-02-17T18:20:26.171Z,100210.13
2019-02-17T18:22:55.236Z,100217.20
2019-02-17T18:25:24.297Z,100224.75
2019-02-17T18:27:53.359Z,100222.61
2019-02-17T18:30:22.574Z,100219.95
2019-02-17T18:32:51.657Z,100227.98
2019-02-17T18:35:20.955Z,100221.88
2019-02-17T18:37:50.025Z,100226.34
2019-02-17T18:40:19.150Z,100220.66
2019-02-17T18:42:48.207Z,100225.55
2019-02-17T18:45:17.245Z,100230.06
2019-02-17T18:47:46.420Z,100234.44
2019-02-17T18:50:15.492Z,100230.64
2019-02-17T18:52:44.524Z,100231.16
2019-02-17T18:55:13.666Z,100235.20
2019-02-17T18:57:49.422Z,100234.81
2019-02-17T19:00:14.609Z,100241.47
2019-02-17T19:02:43.657Z,100241.11
2019-02-17T19:05:13.582Z,100242.08
2019-02-17T19:07:43.397Z,100239.06
2019-02-17T19:10:12.903Z,100236.97
2019-02-17T19:12:42.105Z,100238.38
2019-02-17T19:15:12.318Z,100241.91
2019-02-17T19:17:41.340Z,100245.05
2019-02-17T19:20:12.397Z,100238.55
2019-02-17T19:22:41.524Z,100238.61
2019-02-17T19:25:10.661Z,100233.42
2019-02-17T19:27:39.729Z,100230.87
2019-02-17T19:30:09.711Z,100238.78
2019-02-17T19:32:38.761Z,100242.88
2019-02-17T19:35:10.080Z,100248.56
2019-02-17T19:37:39.994Z,100242.45
2019-02-17T19:40:10.555Z,100252.19
2019-02-17T19:42:39.671Z,100246.98
2019-02-17T19:45:09.771Z,100252.27
2019-02-17T19:47:39.030Z,100250.16
2019-02-17T19:50:09.401Z,100249.69
2019-02-17T19:52:38.694Z,100255.93
2019-02-17T19:55:07.979Z,100252.87
2019-02-17T19:57:37.181Z,100253.31
2019-02-17T20:00:06.945Z,100255.10
2019-02-17T20:02:47.638Z,100250.37
2019-02-17T20:05:18.664Z,100247.33
2019-02-17T20:07:47.724Z,100253.52
2019-02-17T20:10:16.758Z,100251.82
2019-02-17T20:12:45.819Z,100256.19
2019-02-17T20:15:15.036Z,100257.59
2019-02-17T20:17:44.315Z,100258.05
2019-02-17T20:20:13.506Z,100266.81
2019-02-17T20:22:42.638Z,100268.22
2019-02-17T20:25:11.729Z,100262.11
2019-02-17T20:27:40.793Z,100264.30
2019-02-17T20:30:10.356Z,100263.00
2019-02-17T20:32:39.453Z,100261.27
2019-02-17T20:35:08.545Z,100268.31
2019-02-17T20:37:37.681Z,100266.12
2019-02-17T20:40:07.350Z,100263.97
2019-02-17T20:42:36.511Z,100259.17
2019-02-17T20:45:05.907Z,100257.02
2019-02-17T20:47:34.982Z,100264.45
2019-02-17T20:50:04.247Z,100262.72
2019-02-17T20:52:33.355Z,100257.52
2019-02-17T20:55:02.387Z,100263.20
2019-02-17T20:57:31.524Z,100268.98
2019-02-17T21:00:00.644Z,100270.73
2019-02-17T21:02:29.741Z,100266.83
2019-02-17T21:04:58.836Z,100268.61
2019-02-17T21:07:27.930Z,100273.00
2019-02-17T21:09:57.011Z,100262.09
2019-02-17T21:12:26.150Z,100258.20
2019-02-17T21:14:55.209Z,100271.36
2019-02-17T21:17:24.313Z,100259.58
2019-02-17T21:19:53.349Z,100265.73
2019-02-17T21:22:22.402Z,100268.41
2019-02-17T21:24:51.561Z,100274.15
2019-02-17T21:27:20.652Z,100274.20
2019-02-17T21:29:49.730Z,100277.73
2019-02-17T21:32:18.895Z,100278.25
2019-02-17T21:34:47.974Z,100273.92
2019-02-17T21:37:17.031Z,100277.45
2019-02-17T21:39:46.274Z,100273.98
2019-02-17T21:42:15.349Z,100271.35
2019-02-17T21:44:44.392Z,100273.98
2019-02-17T21:47:13.446Z,100278.86
2019-02-17T21:49:42.553Z,100274.95
2019-02-17T21:52:11.636Z,100274.08
2019-02-17T21:54:40.694Z,100278.48
2019-02-17T21:57:09.785Z,100275.00
2019-02-17T21:59:38.826Z,100274.16
2019-02-17T22:02:07.873Z,100267.59
2019-02-17T22:04:36.951Z,100265.86
2019-02-17T22:07:06.054Z,100271.16
2019-02-17T22:09:35.095Z,100268.53
2019-02-17T22:12:04.203Z,100267.25
2019-02-17T22:14:33.222Z,100265.95
2019-02-17T22:17:02.273Z,100272.55
2019-02-17T22:19:31.351Z,100266.02
2019-02-17T22:22:00.386Z,100262.55
2019-02-17T22:24:29.419Z,100258.66
2019-02-17T22:26:58.514Z,100258.23
2019-02-17T22:29:27.610Z,100257.81
2019-02-17T22:31:56.599Z,100254.80
2019-02-17T22:34:25.705Z,100249.58
2019-02-17T22:36:54.980Z,100253.98
2019-02-17T22:39:24.044Z,100250.08
2019-02-17T22:42:01.959Z,100248.30
2019-02-17T22:44:31.077Z,100246.63
2019-02-17T22:47:00.138Z,100251.88
2019-02-17T22:49:29.185Z,100248.41
2019-02-17T22:51:58.333Z,100252.80
2019-02-17T22:54:27.409Z,100253.27
2019-02-17T22:56:56.520Z,100251.95
2019-02-17T22:59:25.652Z,100246.70
2019-02-17T23:01:54.795Z,100248.05
2019-02-17T23:04:23.917Z,100245.88
2019-02-17T23:06:54.395Z,100252.02
2019-02-17T23:09:23.957Z,100252.47
2019-02-17T23:11:52.996Z,100246.80
2019-02-17T23:14:22.178Z,100253.81
2019-02-17T23:16:51.198Z,100252.95
2019-02-17T23:19:20.329Z,100250.36
2019-02-17T23:21:49.615Z,100250.84
2019-02-17T23:24:18.792Z,100255.66
2019-02-17T23:26:49.898Z,100253.49
2019-02-17T23:29:18.903Z,100260.08
2019-02-17T23:31:47.979Z,100257.93
2019-02-17T23:34:17.051Z,100253.16
2019-02-17T23:36:46.087Z,100258.85
2019-02-17T23:39:15.158Z,100254.48
2019-02-17T23:41:44.295Z,100257.16
2019-02-17T23:44:13.381Z,100254.13
2019-02-17T23:46:42.626Z,100257.16
2019-02-17T23:49:11.700Z,100256.75
2019-02-17T23:51:40.906Z,100256.76
2019-02-17T23:54:10.014Z,100255.88
2019-02-17T23:56:39.397Z,100248.87
2019-02-17T23:59:08.527Z,100248.01
